createdAt,value
2023-03-05T00:01:38.030Z,40.4
2023-03-05T00:03:21.318Z,40.4
2023-03-05T00:05:04.834Z,40.4
2023-03-05T00:06:48.189Z,40.4
2023-03-05T00:08:31.536Z,40.4
2023-03-05T00:10:14.984Z,40.4
2023-03-05T00:11:58.298Z,40.4
2023-03-05T00:13:41.938Z,40.4
2023-03-05T00:15:25.085Z,40.4
2023-03-05T00:17:08.867Z,40.5
2023-03-05T00:18:52.273Z,40.4
2023-03-05T00:20:35.697Z,40.3
2023-03-05T00:22:18.994Z,40.2
2023-03-05T00:24:02.429Z,40.1
2023-03-05T00:25:45.763Z,39.9
2023-03-05T00:27:29.263Z,39.7
2023-03-05T00:29:12.559Z,39.6
2023-03-05T00:32:39.061Z,39.6
2023-03-05T00:34:22.589Z,39.6
2023-03-05T00:36:05.992Z,39.6
2023-03-05T00:37:49.354Z,39.6
2023-03-05T00:39:32.767Z,39.6
2023-03-05T00:41:16.185Z,39.6
2023-03-05T00:42:59.405Z,39.6
2023-03-05T00:44:42.797Z,39.6
2023-03-05T00:48:09.286Z,39.7
2023-03-05T00:49:52.698Z,39.7
2023-03-05T00:51:36.107Z,39.7
2023-03-05T00:53:19.582Z,39.7
2023-03-05T00:55:02.924Z,39.7
2023-03-05T00:56:46.271Z,39.7
2023-03-05T00:58:29.666Z,39.7
2023-03-05T01:00:13.066Z,39.7
2023-03-05T01:03:39.613Z,39.7
2023-03-05T01:05:22.997Z,39.8
2023-03-05T01:07:06.395Z,39.8
2023-03-05T01:08:49.806Z,39.8
2023-03-05T01:10:33.114Z,39.8
2023-03-05T01:12:16.501Z,39.8
2023-03-05T01:14:00.072Z,39.8
2023-03-05T01:15:43.413Z,39.8
2023-03-05T01:19:09.776Z,39.8
2023-03-05T01:20:53.317Z,39.8
2023-03-05T01:22:36.573Z,39.8
2023-03-05T01:24:20.101Z,39.8
2023-03-05T01:26:03.329Z,39.8
2023-03-05T01:27:46.730Z,39.8
2023-03-05T01:29:30.122Z,39.8
2023-03-05T01:31:13.597Z,39.8
2023-03-05T01:34:39.985Z,39.8
2023-03-05T01:36:23.416Z,39.8
2023-03-05T01:38:06.793Z,39.8
2023-03-05T01:39:50.223Z,39.8
2023-03-05T01:41:33.572Z,39.9
2023-03-05T01:43:16.980Z,39.9
2023-03-05T01:45:00.510Z,39.9
2023-03-05T01:46:43.751Z,39.9
2023-03-05T01:51:53.052Z,39.9
2023-03-05T01:53:36.411Z,39.9
2023-03-05T01:55:19.793Z,39.9
2023-03-05T01:57:03.253Z,39.9
2023-03-05T01:58:46.588Z,39.9
2023-03-05T02:00:30.051Z,39.9
2023-03-05T02:02:13.440Z,39.9
2023-03-05T02:03:56.863Z,40
2023-03-05T02:09:06.020Z,39.9
2023-03-05T02:10:49.412Z,40
2023-03-05T02:12:32.857Z,39.9
2023-03-05T02:14:16.252Z,39.9
2023-03-05T02:15:59.696Z,39.9
2023-03-05T02:17:43.003Z,40
2023-03-05T02:19:26.395Z,40
2023-03-05T02:21:09.856Z,40
2023-03-05T02:24:36.285Z,40
2023-03-05T02:26:19.732Z,40
2023-03-05T02:28:03.139Z,40
2023-03-05T02:29:46.552Z,40
2023-03-05T02:31:29.843Z,40
2023-03-05T02:33:13.395Z,40
2023-03-05T02:34:56.647Z,40
2023-03-05T02:36:40.038Z,40
2023-03-05T02:40:06.603Z,40
2023-03-05T02:41:49.905Z,40
2023-03-05T02:43:33.306Z,40
2023-03-05T02:45:16.789Z,40
2023-03-05T02:47:00.152Z,40
2023-03-05T02:48:43.506Z,40
2023-03-05T02:50:26.900Z,40
2023-03-05T02:52:10.288Z,40
2023-03-05T02:55:36.756Z,40
2023-03-05T02:57:20.211Z,40
2023-03-05T02:59:03.568Z,40
2023-03-05T03:00:46.952Z,40
2023-03-05T03:02:30.347Z,40
2023-03-05T03:04:13.791Z,40
2023-03-05T03:05:57.188Z,40
2023-03-05T03:07:40.538Z,40
2023-03-05T03:12:49.827Z,40
2023-03-05T03:14:33.167Z,40
2023-03-05T03:16:16.600Z,40
2023-03-05T03:17:59.990Z,40.1
2023-03-05T03:19:43.469Z,40.1
2023-03-05T03:21:26.804Z,40.1
2023-03-05T03:23:10.234Z,40.2
2023-03-05T03:24:53.558Z,40.1
2023-03-05T03:30:02.878Z,40.1
2023-03-05T03:31:46.201Z,40.2
2023-03-05T03:33:29.581Z,40.2
2023-03-05T03:35:13.038Z,40.2
2023-03-05T03:36:56.374Z,40.3
2023-03-05T03:38:39.830Z,40.3
2023-03-05T03:40:23.273Z,40.2
2023-03-05T03:42:06.635Z,40.2
2023-03-05T03:45:33.045Z,40.3
2023-03-05T03:47:16.489Z,40.2
2023-03-05T03:48:59.836Z,40.2
2023-03-05T03:50:43.221Z,40.3
2023-03-05T03:52:26.616Z,40.3
2023-03-05T03:54:10.013Z,40.3
2023-03-05T03:55:53.397Z,40.3
2023-03-05T03:57:36.802Z,40.3
2023-03-05T04:02:46.051Z,40.3
2023-03-05T04:04:29.431Z,40.3
2023-03-05T04:06:12.839Z,40.3
2023-03-05T04:07:56.243Z,40.3
2023-03-05T04:09:39.637Z,40.3
2023-03-05T04:11:23.044Z,40.3
2023-03-05T04:13:06.412Z,40.3
2023-03-05T04:14:49.822Z,40.3
2023-03-05T04:19:59.100Z,40.3
2023-03-05T04:21:42.470Z,40.3
2023-03-05T04:23:25.904Z,40.3
2023-03-05T04:25:09.244Z,40.3
2023-03-05T04:26:52.678Z,40.3
2023-03-05T04:28:36.031Z,40.3
2023-03-05T04:30:19.425Z,40.3
2023-03-05T04:32:02.879Z,40.3
2023-03-05T04:37:12.078Z,40.3
2023-03-05T04:38:55.525Z,40.3
2023-03-05T04:40:38.873Z,40.3
2023-03-05T04:42:22.337Z,40.3
2023-03-05T04:44:05.696Z,40.3
2023-03-05T04:45:49.052Z,40.3
2023-03-05T04:47:32.443Z,40.3
2023-03-05T04:49:15.908Z,40.3
2023-03-05T04:52:42.316Z,40.3
2023-03-05T04:54:25.774Z,40.4
2023-03-05T04:56:09.107Z,40.4
2023-03-05T04:57:52.512Z,40.4
2023-03-05T04:59:35.892Z,40.4
2023-03-05T05:01:19.326Z,40.3
2023-03-05T05:03:02.681Z,40.3
2023-03-05T05:04:46.160Z,40.4
2023-03-05T05:09:55.306Z,40.4
2023-03-05T05:11:38.720Z,40.4
2023-03-05T05:13:22.112Z,40.4
2023-03-05T05:15:05.736Z,40.4
2023-03-05T05:16:48.911Z,40.4
2023-03-05T05:18:32.306Z,40.4
2023-03-05T05:20:15.731Z,40.4
2023-03-05T05:21:59.092Z,40.4
2023-03-05T05:25:25.569Z,40.4
2023-03-05T05:27:08.962Z,40.4
2023-03-05T05:28:52.387Z,40.4
2023-03-05T05:30:35.758Z,40.4
2023-03-05T05:32:19.159Z,40.4
2023-03-05T05:34:02.614Z,40.4
2023-03-05T05:35:46.007Z,40.4
2023-03-05T05:37:29.373Z,40.4
2023-03-05T05:40:55.883Z,40.4
2023-03-05T05:42:39.366Z,40.4
2023-03-05T05:44:22.602Z,40.4
2023-03-05T05:46:06.012Z,40.4
2023-03-05T05:47:49.406Z,40.4
2023-03-05T05:49:32.796Z,40.4
2023-03-05T05:51:16.224Z,40.4
2023-03-05T05:52:59.650Z,40.4
2023-03-05T05:56:26.100Z,40.4
2023-03-05T05:58:09.486Z,40.4
2023-03-05T05:59:52.910Z,40.4
2023-03-05T06:01:36.280Z,40.4
2023-03-05T06:03:19.706Z,40.4
2023-03-05T06:05:03.160Z,40.4
2023-03-05T06:06:46.465Z,40.4
2023-03-05T06:08:29.841Z,40.4
2023-03-05T06:13:39.096Z,40.4
2023-03-05T06:15:22.581Z,40.4
2023-03-05T06:17:05.885Z,40.4
2023-03-05T06:18:49.281Z,40.4
2023-03-05T06:20:32.675Z,40.4
2023-03-05T06:22:16.059Z,40.4
2023-03-05T06:23:59.465Z,40.4
2023-03-05T06:25:42.899Z,40.4
2023-03-05T06:30:52.100Z,40.4
2023-03-05T06:32:35.490Z,40.4
2023-03-05T06:34:19.071Z,40.4
2023-03-05T06:36:02.280Z,40.4
2023-03-05T06:37:45.686Z,40.4
2023-03-05T06:39:29.174Z,40.3
2023-03-05T06:41:12.463Z,40.3
2023-03-05T06:42:55.860Z,40.3
2023-03-05T06:48:05.163Z,40.2
2023-03-05T06:49:48.503Z,40.3
2023-03-05T06:51:31.955Z,40.2
2023-03-05T06:53:15.342Z,40.2
2023-03-05T06:54:58.690Z,40.2
2023-03-05T06:56:42.124Z,40.2
2023-03-05T06:58:25.485Z,40.2
2023-03-05T07:00:09.019Z,40.2
2023-03-05T07:05:18.213Z,40.2
2023-03-05T07:07:01.516Z,40.2
2023-03-05T07:08:45.056Z,40.1
2023-03-05T07:10:28.298Z,40.1
2023-03-05T07:12:11.712Z,40.1
2023-03-05T07:13:55.102Z,40.1
2023-03-05T07:15:38.503Z,40.1
2023-03-05T07:17:21.900Z,40.1
2023-03-05T07:20:48.352Z,40.1
2023-03-05T07:22:31.763Z,40
2023-03-05T07:24:15.170Z,40
2023-03-05T07:25:58.598Z,40
2023-03-05T07:27:41.981Z,40
2023-03-05T07:29:25.417Z,40
2023-03-05T07:31:08.738Z,40
2023-03-05T07:32:52.158Z,40
2023-03-05T07:36:18.702Z,39.9
2023-03-05T07:38:02.010Z,39.9
2023-03-05T07:39:45.424Z,39.9
2023-03-05T07:41:28.879Z,39.9
2023-03-05T07:43:12.314Z,39.9
2023-03-05T07:44:55.585Z,39.9
2023-03-05T07:46:39.081Z,39.8
2023-03-05T07:48:22.388Z,39.8
2023-03-05T07:51:48.846Z,39.8
2023-03-05T07:53:32.247Z,39.7
2023-03-05T07:55:15.719Z,39.7
2023-03-05T07:56:59.156Z,39.7
2023-03-05T07:58:42.481Z,39.8
2023-03-05T08:00:25.970Z,39.8
2023-03-05T08:02:09.447Z,39.7
2023-03-05T08:03:52.672Z,39.7
2023-03-05T08:07:19.173Z,39.6
2023-03-05T08:09:02.486Z,39.6
2023-03-05T08:10:45.897Z,39.6
2023-03-05T08:12:29.450Z,39.5
2023-03-05T08:14:12.792Z,39.5
2023-03-05T08:15:56.114Z,39.6
2023-03-05T08:17:39.465Z,39.5
2023-03-05T08:19:22.980Z,39.6
2023-03-05T08:24:32.114Z,39.5
2023-03-05T08:26:15.673Z,39.5
2023-03-05T08:27:58.916Z,39.5
2023-03-05T08:29:42.313Z,39.5
2023-03-05T08:31:25.812Z,39.4
2023-03-05T08:33:09.159Z,39.4
2023-03-05T08:34:52.487Z,39.4
2023-03-05T08:40:02.347Z,39.4
2023-03-05T08:41:45.827Z,39.3
2023-03-05T08:43:29.151Z,39.4
2023-03-05T08:45:12.596Z,39.3
2023-03-05T08:46:55.946Z,39.2
2023-03-05T08:48:39.401Z,39.2
2023-03-05T08:50:22.728Z,39.3
2023-03-05T08:52:06.133Z,39.3
2023-03-05T08:55:32.653Z,39.4
2023-03-05T08:57:16.007Z,39.4
2023-03-05T08:58:59.389Z,39.5
2023-03-05T09:00:42.793Z,39.5
2023-03-05T09:02:26.317Z,39.6
2023-03-05T09:04:09.629Z,39.6
2023-03-05T09:05:53.004Z,39.7
2023-03-05T09:07:36.382Z,39.5
2023-03-05T09:11:02.849Z,39.4
2023-03-05T09:12:46.261Z,39.5
2023-03-05T09:14:29.728Z,39.6
2023-03-05T09:16:13.060Z,39.8
2023-03-05T09:17:56.425Z,39.6
2023-03-05T09:19:39.922Z,39.6
2023-03-05T09:21:23.245Z,39.5
2023-03-05T09:23:06.624Z,39.8
2023-03-05T09:26:33.156Z,40.2
2023-03-05T09:28:16.506Z,40
2023-03-05T09:29:59.915Z,40
2023-03-05T09:31:43.376Z,40.1
2023-03-05T09:33:26.691Z,39.8
2023-03-05T09:35:10.083Z,39.6
2023-03-05T09:36:53.494Z,39.6
2023-03-05T09:38:36.953Z,40.8
2023-03-05T09:40:20.592Z,40.2
2023-03-05T09:42:03.986Z,40.4
2023-03-05T09:43:47.386Z,40.4
2023-03-05T09:45:30.825Z,40.6
2023-03-05T09:47:14.199Z,41.2
2023-03-05T09:48:57.589Z,41.3
2023-03-05T09:50:41.058Z,40.3
2023-03-05T09:52:24.406Z,40.1
2023-03-05T09:55:50.835Z,39.8
2023-03-05T09:57:34.277Z,39.8
2023-03-05T09:59:17.635Z,39.9
2023-03-05T10:01:01.043Z,39.9
2023-03-05T10:02:44.416Z,39.9
2023-03-05T10:04:27.825Z,39.9
2023-03-05T10:06:11.219Z,39.9
2023-03-05T10:07:54.622Z,39.7
2023-03-05T10:11:21.202Z,39.2
2023-03-05T10:13:04.481Z,39.4
2023-03-05T10:14:47.873Z,39.5
2023-03-05T10:16:31.291Z,39.6
2023-03-05T10:18:14.681Z,39.7
2023-03-05T10:19:58.071Z,39.8
2023-03-05T10:21:41.488Z,39.7
2023-03-05T10:23:24.869Z,39.7
2023-03-05T10:26:51.450Z,39.8
2023-03-05T10:28:34.730Z,39.7
2023-03-05T10:30:18.126Z,39
2023-03-05T10:32:01.528Z,38.9
2023-03-05T10:33:44.923Z,39
2023-03-05T10:35:28.314Z,39.3
2023-03-05T10:37:11.710Z,39.5
2023-03-05T10:38:55.178Z,39.5
2023-03-05T10:42:21.591Z,39.6
2023-03-05T10:44:04.999Z,39.8
2023-03-05T10:45:48.364Z,39.9
2023-03-05T10:47:31.814Z,40
2023-03-05T10:49:15.169Z,40
2023-03-05T10:50:58.623Z,40.1
2023-03-05T10:52:41.961Z,40.1
2023-03-05T10:54:25.362Z,40.1
2023-03-05T10:57:51.828Z,40.1
2023-03-05T10:59:35.278Z,40
2023-03-05T11:01:18.639Z,40.1
2023-03-05T11:03:02.010Z,40.2
2023-03-05T11:04:45.439Z,40.1
2023-03-05T11:06:28.862Z,40.1
2023-03-05T11:08:12.193Z,40.3
2023-03-05T11:09:55.599Z,40.2
2023-03-05T11:13:22.076Z,40.4
2023-03-05T11:15:05.491Z,40.4
2023-03-05T11:16:48.852Z,40.5
2023-03-05T11:18:32.328Z,40.5
2023-03-05T11:20:15.649Z,40.5
2023-03-05T11:21:59.066Z,40.2
2023-03-05T11:23:42.457Z,40.1
2023-03-05T11:25:25.874Z,39.9
2023-03-05T11:28:52.318Z,40.3
2023-03-05T11:30:35.715Z,40.1
2023-03-05T11:32:19.180Z,40.1
2023-03-05T11:34:02.520Z,40.1
2023-03-05T11:35:45.943Z,40.3
2023-03-05T11:37:29.427Z,40.1
2023-03-05T11:39:12.718Z,40.1
2023-03-05T11:40:56.093Z,40.2
2023-03-05T11:44:22.589Z,40.2
2023-03-05T11:46:05.953Z,40.2
2023-03-05T11:47:49.406Z,40.2
2023-03-05T11:49:32.752Z,40.4
2023-03-05T11:51:16.148Z,40.3
2023-03-05T11:52:59.548Z,40.2
2023-03-05T11:54:42.941Z,40.6
2023-03-05T11:56:26.494Z,41
2023-03-05T11:58:10.096Z,40.5
2023-03-05T11:59:53.438Z,40.5
2023-03-05T12:01:36.832Z,40.4
2023-03-05T12:03:20.311Z,40.5
2023-03-05T12:05:03.667Z,40.5
2023-03-05T12:06:47.091Z,40.2
2023-03-05T12:08:30.428Z,40.5
2023-03-05T12:10:13.815Z,40.5
2023-03-05T12:13:40.293Z,40.4
2023-03-05T12:15:23.688Z,40.5
2023-03-05T12:17:07.119Z,40.5
2023-03-05T12:18:50.473Z,40.5
2023-03-05T12:20:33.907Z,40.6
2023-03-05T12:22:17.289Z,40.6
2023-03-05T12:24:00.665Z,40.6
2023-03-05T12:25:44.076Z,40.7
2023-03-05T12:29:10.531Z,40.7
2023-03-05T12:30:53.979Z,40.7
2023-03-05T12:32:37.432Z,40.7
2023-03-05T12:34:20.730Z,40.7
2023-03-05T12:36:04.241Z,40.7
2023-03-05T12:37:47.508Z,40.7
2023-03-05T12:39:30.925Z,40.7
2023-03-05T12:41:14.365Z,40.7
2023-03-05T12:46:24.187Z,40.6
2023-03-05T12:48:07.704Z,40.6
2023-03-05T12:49:51.152Z,40.6
2023-03-05T12:51:34.375Z,40.6
2023-03-05T12:53:17.772Z,40.6
2023-03-05T12:55:01.166Z,40.6
2023-03-05T12:56:44.550Z,40.6
2023-03-05T13:00:11.189Z,40.6
2023-03-05T13:01:54.511Z,40.6
2023-03-05T13:03:37.851Z,40.6
2023-03-05T13:05:21.288Z,40.6
2023-03-05T13:07:04.611Z,40.6
2023-03-05T13:08:48.082Z,40.6
2023-03-05T13:10:31.478Z,40.6
2023-03-05T13:12:14.808Z,40.6
2023-03-05T13:15:41.402Z,40.6
2023-03-05T13:17:24.658Z,40.6
2023-03-05T13:19:08.136Z,40.6
2023-03-05T13:20:51.601Z,40.6
2023-03-05T13:22:34.841Z,40.6
2023-03-05T13:24:18.332Z,40.5
2023-03-05T13:26:01.816Z,40.5
2023-03-05T13:27:45.104Z,40.5
2023-03-05T13:31:11.511Z,40.5
2023-03-05T13:32:54.923Z,40.5
2023-03-05T13:34:38.307Z,40.5
2023-03-05T13:36:21.819Z,40.5
2023-03-05T13:38:05.192Z,40.5
2023-03-05T13:39:48.503Z,40.5
2023-03-05T13:41:32.032Z,40.5
2023-03-05T13:43:15.407Z,40.5
2023-03-05T13:46:41.743Z,40.5
2023-03-05T13:48:25.149Z,40.5
2023-03-05T13:50:08.587Z,40.5
2023-03-05T13:51:51.966Z,40.5
2023-03-05T13:53:35.379Z,40.5
2023-03-05T13:55:18.789Z,40.4
2023-03-05T13:57:02.232Z,40.4
2023-03-05T13:58:45.534Z,40.4
2023-03-05T14:00:29.282Z,40.4
2023-03-05T14:02:12.642Z,40.4
2023-03-05T14:03:56.099Z,40.4
2023-03-05T14:05:39.464Z,40.4
2023-03-05T14:07:22.809Z,40.4
2023-03-05T14:09:06.304Z,40.4
2023-03-05T14:10:49.750Z,40.4
2023-03-05T14:12:33.099Z,40.4
2023-03-05T14:15:59.522Z,40.3
2023-03-05T14:17:42.880Z,40.3
2023-03-05T14:19:26.253Z,40.3
2023-03-05T14:21:09.769Z,40.3
2023-03-05T14:22:53.052Z,40.3
2023-03-05T14:24:36.477Z,40.3
2023-03-05T14:26:19.847Z,40.3
2023-03-05T14:31:29.723Z,40.2
2023-03-05T14:33:13.232Z,40.2
2023-03-05T14:34:56.579Z,40.2
2023-03-05T14:36:39.900Z,40.2
2023-03-05T14:38:23.290Z,40.2
2023-03-05T14:40:06.833Z,40.2
2023-03-05T14:41:50.108Z,40.2
2023-03-05T14:43:33.548Z,40.2
2023-03-05T14:47:00.020Z,40.2
2023-03-05T14:48:43.432Z,40.2
2023-03-05T14:50:26.779Z,40.2
2023-03-05T14:52:10.263Z,40.2
2023-03-05T14:53:53.553Z,40.1
2023-03-05T14:55:37.085Z,40.2
2023-03-05T14:57:20.393Z,40.1
2023-03-05T14:59:03.839Z,40.1
2023-03-05T15:02:30.217Z,40.1
2023-03-05T15:04:13.663Z,40.1
2023-03-05T15:05:57.063Z,40.1
2023-03-05T15:07:40.400Z,40.1
2023-03-05T15:09:23.799Z,40.1
2023-03-05T15:11:07.308Z,40.1
2023-03-05T15:12:50.641Z,40.1
2023-03-05T15:14:34.030Z,40.1
2023-03-05T15:18:00.559Z,40.1
2023-03-05T15:19:43.901Z,40.1
2023-03-05T15:21:27.244Z,40.1
2023-03-05T15:23:10.641Z,40.1
2023-03-05T15:24:54.214Z,40.1
2023-03-05T15:26:37.452Z,40.1
2023-03-05T15:28:20.889Z,40
2023-03-05T15:30:04.265Z,40
2023-03-05T15:33:30.704Z,40
2023-03-05T15:35:14.082Z,39.9
2023-03-05T15:36:57.652Z,39.9
2023-03-05T15:38:40.965Z,39.8
2023-03-05T15:40:24.290Z,39.8
2023-03-05T15:42:07.722Z,39.8
2023-03-05T15:43:51.075Z,39.8
2023-03-05T15:45:34.481Z,39.8
2023-03-05T15:49:00.949Z,39.8
2023-03-05T15:50:44.437Z,39.8
2023-03-05T15:52:27.759Z,39.8
2023-03-05T15:54:11.163Z,39.7
2023-03-05T15:55:54.592Z,39.7
2023-03-05T15:57:38.076Z,39.7
2023-03-05T15:59:21.416Z,39.7
2023-03-05T16:01:04.779Z,39.6
2023-03-05T16:02:48.487Z,39.6
2023-03-05T16:04:31.821Z,39.7
2023-03-05T16:06:15.233Z,39.7
2023-03-05T16:07:58.750Z,39.6
2023-03-05T16:09:42.000Z,39.7
2023-03-05T16:11:25.442Z,39.9
2023-03-05T16:13:08.808Z,40.4
2023-03-05T16:14:52.204Z,40.8
2023-03-05T16:18:18.946Z,40.6
2023-03-05T16:20:02.194Z,40.7
2023-03-05T16:21:45.450Z,40.2
2023-03-05T16:23:28.934Z,40
2023-03-05T16:25:12.310Z,40.4
2023-03-05T16:26:55.782Z,40.6
2023-03-05T16:28:39.127Z,40.6
2023-03-05T16:30:22.462Z,40.8
2023-03-05T16:33:49.074Z,40.4
2023-03-05T16:35:32.500Z,40.3
2023-03-05T16:37:15.846Z,40.5
2023-03-05T16:38:59.099Z,40.6
2023-03-05T16:40:42.544Z,40.5
2023-03-05T16:42:25.931Z,40.5
2023-03-05T16:44:09.301Z,40.5
2023-03-05T16:45:52.787Z,40.5
2023-03-05T16:51:01.948Z,40.5
2023-03-05T16:52:45.430Z,40.5
2023-03-05T16:54:28.741Z,40.5
2023-03-05T16:56:12.179Z,40.4
2023-03-05T16:57:55.511Z,40.4
2023-03-05T16:59:38.954Z,40.4
2023-03-05T17:01:22.359Z,40.4
2023-03-05T17:03:05.743Z,40.4
2023-03-05T17:06:32.359Z,40.4
2023-03-05T17:08:15.704Z,40.4
2023-03-05T17:09:58.957Z,40.4
2023-03-05T17:11:42.421Z,40.4
2023-03-05T17:13:25.830Z,40.4
2023-03-05T17:15:09.268Z,40.4
2023-03-05T17:16:52.675Z,40.4
2023-03-05T17:18:35.950Z,40.5
2023-03-05T17:23:45.197Z,40.5
2023-03-05T17:25:28.682Z,40.5
2023-03-05T17:27:12.114Z,40.4
2023-03-05T17:28:55.430Z,40.7
2023-03-05T17:30:38.788Z,40.7
2023-03-05T17:32:22.241Z,40.7
2023-03-05T17:34:05.557Z,40.8
2023-03-05T17:35:49.030Z,40.8
2023-03-05T17:39:15.429Z,41.3
2023-03-05T17:40:58.816Z,41.5
2023-03-05T17:42:42.256Z,41.4
2023-03-05T17:44:25.649Z,41.3
2023-03-05T17:46:09.075Z,41.1
2023-03-05T17:47:52.532Z,41
2023-03-05T17:49:35.964Z,41.3
2023-03-05T17:51:19.195Z,41.2
2023-03-05T17:54:45.688Z,41.5
2023-03-05T17:56:29.087Z,41.5
2023-03-05T17:58:12.452Z,41.5
2023-03-05T17:59:55.933Z,41.4
2023-03-05T18:01:39.377Z,41.4
2023-03-05T18:03:22.656Z,41.4
2023-03-05T18:05:06.071Z,41.3
2023-03-05T18:06:49.462Z,41.2
2023-03-05T18:10:15.923Z,41.1
2023-03-05T18:11:59.378Z,41.1
2023-03-05T18:13:42.751Z,41.1
2023-03-05T18:15:26.144Z,41
2023-03-05T18:17:09.530Z,40.9
2023-03-05T18:18:52.939Z,40.9
2023-03-05T18:20:36.295Z,40.9
2023-03-05T18:22:19.748Z,40.9
2023-03-05T18:27:28.919Z,40.8
2023-03-05T18:29:12.334Z,40.8
2023-03-05T18:30:55.773Z,40.7
2023-03-05T18:32:39.106Z,40.7
2023-03-05T18:34:22.512Z,40.7
2023-03-05T18:36:05.918Z,40.7
2023-03-05T18:37:49.409Z,40.7
2023-03-05T18:39:32.697Z,40.7
2023-03-05T18:44:41.943Z,40.6
2023-03-05T18:46:25.379Z,40.6
2023-03-05T18:48:08.722Z,40.6
2023-03-05T18:49:52.128Z,40.5
2023-03-05T18:51:35.521Z,40.5
2023-03-05T18:53:18.925Z,40.5
2023-03-05T18:55:02.383Z,40.5
2023-03-05T18:56:45.840Z,40.5
2023-03-05T19:00:12.183Z,40.4
2023-03-05T19:01:55.579Z,40.5
2023-03-05T19:03:38.998Z,40.5
2023-03-05T19:05:22.412Z,40.5
2023-03-05T19:07:05.761Z,40.5
2023-03-05T19:08:49.239Z,40.4
2023-03-05T19:10:32.638Z,40.5
2023-03-05T19:12:16.031Z,40.5
2023-03-05T19:15:42.506Z,40.4
2023-03-05T19:17:25.834Z,40.4
2023-03-05T19:19:09.234Z,40.4
2023-03-05T19:20:52.758Z,40.4
2023-03-05T19:22:36.009Z,40.4
2023-03-05T19:24:19.526Z,40.4
2023-03-05T19:26:02.849Z,40.4
2023-03-05T19:27:46.221Z,40.3
2023-03-05T19:32:55.537Z,40.3
2023-03-05T19:34:38.868Z,40.6
2023-03-05T19:36:22.360Z,40.6
2023-03-05T19:38:05.805Z,40.6
2023-03-05T19:39:49.201Z,40.5
2023-03-05T19:41:32.590Z,40.5
2023-03-05T19:43:15.955Z,40.5
2023-03-05T19:44:59.217Z,40.4
2023-03-05T19:48:25.816Z,40.3
2023-03-05T19:50:09.261Z,40.3
2023-03-05T19:51:52.552Z,40.3
2023-03-05T19:53:36.034Z,40.3
2023-03-05T19:55:19.341Z,40.4
2023-03-05T19:57:02.787Z,40.4
2023-03-05T19:58:46.152Z,40.4
2023-03-05T20:00:29.451Z,40.3
2023-03-05T20:05:38.854Z,40.3
2023-03-05T20:07:22.094Z,40.2
2023-03-05T20:09:05.520Z,40.2
2023-03-05T20:10:48.871Z,40.2
2023-03-05T20:12:32.425Z,40.2
2023-03-05T20:14:15.713Z,40.2
2023-03-05T20:15:59.130Z,40.2
2023-03-05T20:17:42.492Z,40.2
2023-03-05T20:21:09.003Z,40.2
2023-03-05T20:22:52.350Z,40.2
2023-03-05T20:24:35.730Z,40.3
2023-03-05T20:26:19.183Z,40.3
2023-03-05T20:28:02.520Z,40.3
2023-03-05T20:29:45.912Z,40.3
2023-03-05T20:31:29.379Z,40.3
2023-03-05T20:33:12.795Z,40.3
2023-03-05T20:36:39.243Z,40.3
2023-03-05T20:38:22.609Z,40.3
2023-03-05T20:40:06.005Z,40.3
2023-03-05T20:41:49.454Z,40.3
2023-03-05T20:43:32.845Z,40.3
2023-03-05T20:45:16.204Z,40.3
2023-03-05T20:46:59.557Z,40.3
2023-03-05T20:48:43.117Z,40.3
2023-03-05T20:52:09.594Z,40.4
2023-03-05T20:53:52.817Z,40.4
2023-03-05T20:55:36.225Z,40.4
2023-03-05T20:57:19.625Z,40.4
2023-03-05T20:59:03.021Z,40.4
2023-03-05T21:00:46.418Z,40.4
2023-03-05T21:02:29.800Z,40.4
2023-03-05T21:04:13.270Z,40.4
2023-03-05T21:09:22.463Z,40.4
2023-03-05T21:11:05.871Z,40.5
2023-03-05T21:12:49.241Z,40.5
2023-03-05T21:14:32.817Z,40.5
2023-03-05T21:16:16.038Z,40.5
2023-03-05T21:17:59.430Z,40.5
2023-03-05T21:19:42.884Z,40.7
2023-03-05T21:24:52.064Z,40.7
2023-03-05T21:26:35.477Z,40.6
2023-03-05T21:28:18.858Z,40.4
2023-03-05T21:30:02.285Z,40.3
2023-03-05T21:31:45.730Z,40.3
2023-03-05T21:33:29.083Z,40.3
2023-03-05T21:35:12.453Z,40.3
2023-03-05T21:36:55.985Z,40.3
2023-03-05T21:38:39.589Z,40.3
2023-03-05T21:40:22.960Z,40.3
2023-03-05T21:42:06.327Z,40.2
2023-03-05T21:43:49.733Z,40.2
2023-03-05T21:45:33.126Z,40.2
2023-03-05T21:47:16.522Z,40.2
2023-03-05T21:48:59.914Z,40.2
2023-03-05T21:50:43.374Z,40.2
2023-03-05T21:54:09.898Z,40.3
2023-03-05T21:55:53.172Z,40.3
2023-03-05T21:57:36.574Z,40.4
2023-03-05T21:59:19.969Z,40.4
2023-03-05T22:01:03.379Z,40.3
2023-03-05T22:02:46.827Z,40.5
2023-03-05T22:04:30.190Z,40.7
2023-03-05T22:06:13.554Z,40.8
2023-03-05T22:09:40.020Z,40.7
2023-03-05T22:11:23.428Z,40.6
2023-03-05T22:13:06.808Z,40.6
2023-03-05T22:14:50.217Z,40.5
2023-03-05T22:16:33.603Z,40.5
2023-03-05T22:18:17.000Z,40.4
2023-03-05T22:20:00.386Z,40.2
2023-03-05T22:21:43.833Z,40.1
2023-03-05T22:25:10.261Z,39.7
2023-03-05T22:26:53.655Z,39.4
2023-03-05T22:28:37.066Z,39.3
2023-03-05T22:30:20.438Z,39.3
2023-03-05T22:32:03.897Z,39.3
2023-03-05T22:33:47.273Z,39.3
2023-03-05T22:35:30.660Z,39.3
2023-03-05T22:37:14.176Z,39.3
2023-03-05T22:40:40.518Z,39.4
2023-03-05T22:42:23.905Z,39.4
2023-03-05T22:44:07.302Z,39.4
2023-03-05T22:45:50.708Z,39.5
2023-03-05T22:47:34.097Z,39.5
2023-03-05T22:49:17.549Z,39.5
2023-03-05T22:51:00.880Z,39.5
2023-03-05T22:52:44.466Z,39.5
2023-03-05T22:57:53.592Z,39.6
2023-03-05T22:59:36.921Z,39.5
2023-03-05T23:01:20.369Z,39.6
2023-03-05T23:03:03.781Z,39.6
2023-03-05T23:04:47.098Z,39.8
2023-03-05T23:06:30.548Z,39.8
2023-03-05T23:08:13.991Z,39.9
2023-03-05T23:09:57.313Z,39.9
2023-03-05T23:13:23.775Z,39.9
2023-03-05T23:15:07.216Z,39.9
2023-03-05T23:16:50.548Z,40
2023-03-05T23:18:33.952Z,40
2023-03-05T23:20:17.410Z,40
2023-03-05T23:22:00.781Z,40
2023-03-05T23:23:44.198Z,40
2023-03-05T23:25:27.597Z,40
2023-03-05T23:28:54.045Z,40
2023-03-05T23:30:37.408Z,40
2023-03-05T23:32:20.804Z,40
2023-03-05T23:34:04.214Z,40
2023-03-05T23:35:47.754Z,40
2023-03-05T23:37:31.012Z,40.1
2023-03-05T23:39:14.483Z,40.1
2023-03-05T23:40:57.857Z,40.1
2023-03-05T23:44:24.250Z,40.1
2023-03-05T23:46:07.649Z,40.1
2023-03-05T23:47:51.070Z,40
2023-03-05T23:49:34.447Z,40
2023-03-05T23:51:17.847Z,40.1
2023-03-05T23:53:01.234Z,40.1
2023-03-05T23:54:44.653Z,40.1
2023-03-05T23:56:28.038Z,40.1
2023-03-05T23:59:54.507Z,40.1
